createdAt,value
2023-04-06T00:01:17.239Z,-0.50
2023-04-06T00:03:45.444Z,-0.43
2023-04-06T00:06:17.416Z,-0.35
2023-04-06T00:08:45.878Z,-0.29
2023-04-06T00:11:14.074Z,-0.22
2023-04-06T00:13:52.574Z,-0.16
2023-04-06T00:16:22.444Z,-0.09
2023-04-06T00:18:55.148Z,-0.02
2023-04-06T00:21:23.525Z,0.06
2023-04-06T00:23:55.259Z,0.11
2023-04-06T00:26:23.672Z,0.14
2023-04-06T00:28:53.455Z,0.16
2023-04-06T00:31:22.133Z,0.16
2023-04-06T00:34:25.454Z,0.18
2023-04-06T00:36:54.317Z,0.19
2023-04-06T00:39:22.855Z,0.20
2023-04-06T00:41:58.774Z,0.20
2023-04-06T00:44:30.653Z,0.21
2023-04-06T00:47:01.677Z,0.22
2023-04-06T00:49:42.287Z,0.22
2023-04-06T00:52:10.417Z,0.21
2023-04-06T00:54:41.147Z,0.20
2023-04-06T00:57:10.546Z,0.20
2023-04-06T00:59:38.897Z,0.17
2023-04-06T01:02:10.744Z,0.13
2023-04-06T01:04:39.017Z,0.10
2023-04-06T01:07:13.919Z,0.06
2023-04-06T01:09:43.132Z,0.05
2023-04-06T01:12:11.441Z,0.06
2023-04-06T01:14:39.638Z,0.01
2023-04-06T01:17:07.966Z,-0.05
2023-04-06T01:19:50.427Z,-0.08
2023-04-06T01:22:19.572Z,-0.14
2023-04-06T01:24:48.018Z,-0.13
2023-04-06T01:27:17.110Z,-0.13
2023-04-06T01:29:48.651Z,-0.13
2023-04-06T01:32:17.171Z,-0.12
2023-04-06T01:34:45.859Z,-0.15
2023-04-06T01:37:14.150Z,-0.14
2023-04-06T01:39:44.624Z,-0.14
2023-04-06T01:42:13.486Z,-0.13
2023-04-06T01:44:44.495Z,-0.13
2023-04-06T01:47:13.361Z,-0.16
2023-04-06T01:49:41.836Z,-0.23
2023-04-06T01:52:09.957Z,-0.34
2023-04-06T01:54:41.185Z,-0.42
2023-04-06T01:57:21.674Z,-0.53
2023-04-06T01:59:52.875Z,-0.64
2023-04-06T02:02:21.157Z,-0.73
2023-04-06T02:04:49.861Z,-0.79
2023-04-06T02:07:30.670Z,-0.87
2023-04-06T02:09:59.398Z,-0.94
2023-04-06T02:12:27.683Z,-1.01
2023-04-06T02:14:56.218Z,-1.09
2023-04-06T02:17:50.526Z,-1.15
2023-04-06T02:20:21.834Z,-1.19
2023-04-06T02:22:53.557Z,-1.20
2023-04-06T02:25:22.474Z,-1.10
2023-04-06T02:28:27.382Z,-0.97
2023-04-06T02:30:55.563Z,-0.86
2023-04-06T02:33:23.880Z,-0.82
2023-04-06T02:35:58.050Z,-0.83
2023-04-06T02:38:26.394Z,-0.91
2023-04-06T02:41:10.968Z,-1.02
2023-04-06T02:43:45.578Z,-1.11
2023-04-06T02:46:14.477Z,-1.13
2023-04-06T02:48:42.876Z,-1.12
2023-04-06T02:51:21.666Z,-1.12
2023-04-06T02:53:55.467Z,-1.10
2023-04-06T02:56:27.801Z,-1.07
2023-04-06T02:58:58.777Z,-1.01
2023-04-06T03:01:27.707Z,-0.97
2023-04-06T03:04:31.079Z,-0.98
2023-04-06T03:07:01.336Z,-1.07
2023-04-06T03:09:30.163Z,-1.04
2023-04-06T03:11:59.412Z,-1.00
2023-04-06T03:14:37.110Z,-0.94
2023-04-06T03:17:05.670Z,-0.91
2023-04-06T03:19:34.295Z,-0.94
2023-04-06T03:22:05.000Z,-0.95
2023-04-06T03:24:35.435Z,-0.98
2023-04-06T03:27:04.227Z,-1.05
2023-04-06T03:29:33.079Z,-1.13
2023-04-06T03:32:11.593Z,-1.18
2023-04-06T03:34:43.246Z,-1.20
2023-04-06T03:37:14.123Z,-1.20
2023-04-06T03:39:42.698Z,-1.23
2023-04-06T03:42:11.151Z,-1.28
2023-04-06T03:44:51.007Z,-1.35
2023-04-06T03:47:49.772Z,-1.34
2023-04-06T03:50:30.347Z,-1.27
2023-04-06T03:52:58.721Z,-1.27
2023-04-06T03:55:27.653Z,-1.36
2023-04-06T03:57:56.178Z,-1.50
2023-04-06T04:00:24.443Z,-1.65
2023-04-06T04:02:56.096Z,-1.67
2023-04-06T04:05:27.545Z,-1.65
2023-04-06T04:07:56.304Z,-1.59
2023-04-06T04:10:24.556Z,-1.56
2023-04-06T04:12:59.057Z,-1.56
2023-04-06T04:15:27.258Z,-1.63
2023-04-06T04:18:01.289Z,-1.73
2023-04-06T04:20:29.691Z,-1.84
2023-04-06T04:22:57.932Z,-1.93
2023-04-06T04:25:26.096Z,-1.93
2023-04-06T04:27:54.249Z,-1.90
2023-04-06T04:30:25.048Z,-1.92
2023-04-06T04:32:59.563Z,-1.98
2023-04-06T04:35:28.404Z,-1.96
2023-04-06T04:37:57.002Z,-1.87
2023-04-06T04:40:28.067Z,-1.80
2023-04-06T04:42:56.594Z,-1.75
2023-04-06T04:45:24.886Z,-1.75
2023-04-06T04:47:53.296Z,-1.79
2023-04-06T04:50:21.423Z,-1.86
2023-04-06T04:52:49.567Z,-1.95
2023-04-06T04:55:18.637Z,-2.05
2023-04-06T04:57:46.815Z,-2.11
2023-04-06T05:00:15.670Z,-2.11
2023-04-06T05:02:44.197Z,-2.14
2023-04-06T05:05:24.223Z,-2.13
2023-04-06T05:07:52.583Z,-2.07
2023-04-06T05:10:24.519Z,-2.00
2023-04-06T05:12:53.681Z,-1.88
2023-04-06T05:15:24.658Z,-1.70
2023-04-06T05:17:53.464Z,-1.58
2023-04-06T05:20:21.922Z,-1.47
2023-04-06T05:22:53.682Z,-1.34
2023-04-06T05:25:22.022Z,-1.29
2023-04-06T05:27:50.329Z,-1.31
2023-04-06T05:30:18.529Z,-1.30
2023-04-06T05:32:48.112Z,-1.25
2023-04-06T05:35:16.548Z,-1.17
2023-04-06T05:37:46.165Z,-1.00
2023-04-06T05:40:14.432Z,-0.79
2023-04-06T05:42:46.469Z,-0.59
2023-04-06T05:45:17.945Z,-0.37
2023-04-06T05:47:48.772Z,-0.18
2023-04-06T05:50:22.081Z,-0.02
2023-04-06T05:52:53.368Z,0.09
2023-04-06T05:56:11.312Z,0.20
2023-04-06T05:58:42.876Z,0.52
2023-04-06T06:01:17.299Z,0.75
2023-04-06T06:03:48.582Z,1.02
2023-04-06T06:06:16.988Z,1.48
2023-04-06T06:08:45.258Z,2.10
2023-04-06T06:11:13.657Z,2.59
2023-04-06T06:13:41.963Z,3.04
2023-04-06T06:16:10.974Z,3.32
2023-04-06T06:18:39.307Z,3.65
2023-04-06T06:21:10.528Z,4.08
2023-04-06T06:23:38.829Z,4.36
2023-04-06T06:26:10.383Z,4.56
2023-04-06T06:28:41.871Z,4.64
2023-04-06T06:31:10.922Z,4.80
2023-04-06T06:33:39.895Z,5.11
2023-04-06T06:36:11.524Z,5.43
2023-04-06T06:38:48.684Z,5.47
2023-04-06T06:41:20.120Z,5.05
2023-04-06T06:43:51.336Z,4.84
2023-04-06T06:46:23.068Z,4.95
2023-04-06T06:48:51.256Z,5.19
2023-04-06T06:51:22.174Z,5.25
2023-04-06T06:53:51.152Z,5.14
2023-04-06T06:56:29.111Z,5.24
2023-04-06T06:58:57.562Z,5.54
2023-04-06T07:01:26.245Z,5.77
2023-04-06T07:03:54.910Z,5.74
2023-04-06T07:06:26.879Z,5.66
2023-04-06T07:08:55.325Z,5.66
2023-04-06T07:11:44.344Z,5.75
2023-04-06T07:14:12.922Z,5.66
2023-04-06T07:16:50.178Z,5.98
2023-04-06T07:19:27.824Z,6.28
2023-04-06T07:22:01.543Z,6.35
2023-04-06T07:24:30.516Z,6.32
2023-04-06T07:27:00.107Z,6.40
2023-04-06T07:29:28.865Z,6.59
2023-04-06T07:31:57.567Z,6.51
2023-04-06T07:34:26.017Z,6.19
2023-04-06T07:37:04.400Z,6.00
2023-04-06T07:39:32.730Z,5.94
2023-04-06T07:42:01.225Z,5.95
2023-04-06T07:44:29.911Z,6.12
2023-04-06T07:47:06.057Z,6.18
2023-04-06T07:49:34.376Z,6.33
2023-04-06T07:52:04.154Z,6.30
2023-04-06T07:55:01.516Z,5.99
2023-04-06T07:57:30.120Z,5.88
2023-04-06T07:59:58.609Z,6.10
2023-04-06T08:02:29.896Z,6.26
2023-04-06T08:04:58.402Z,6.33
2023-04-06T08:07:27.536Z,6.61
2023-04-06T08:09:58.655Z,6.92
2023-04-06T08:12:27.292Z,6.98
2023-04-06T08:15:13.069Z,7.20
2023-04-06T08:17:41.590Z,7.41
2023-04-06T08:20:10.344Z,7.50
2023-04-06T08:22:39.266Z,7.57
2023-04-06T08:25:10.959Z,7.74
2023-04-06T08:27:39.390Z,7.74
2023-04-06T08:30:08.433Z,7.60
2023-04-06T08:32:40.022Z,7.43
2023-04-06T08:35:09.553Z,7.29
2023-04-06T08:37:38.064Z,7.11
2023-04-06T08:40:10.558Z,7.31
2023-04-06T08:42:49.020Z,7.37
2023-04-06T08:45:46.305Z,7.12
2023-04-06T08:48:25.659Z,7.13
2023-04-06T08:50:54.714Z,7.31
2023-04-06T08:53:24.414Z,7.48
2023-04-06T08:55:53.673Z,7.51
2023-04-06T08:58:38.816Z,7.53
2023-04-06T09:01:10.270Z,7.89
2023-04-06T09:03:43.256Z,7.77
2023-04-06T09:06:14.145Z,7.37
2023-04-06T09:08:43.034Z,7.40
2023-04-06T09:11:12.214Z,7.57
2023-04-06T09:14:27.570Z,7.62
2023-04-06T09:16:56.341Z,7.94
2023-04-06T09:19:28.534Z,8.01
2023-04-06T09:22:09.949Z,7.96
2023-04-06T09:24:47.279Z,7.74
2023-04-06T09:27:16.787Z,7.33
2023-04-06T09:29:46.146Z,7.56
2023-04-06T09:32:18.179Z,7.68
2023-04-06T09:35:07.052Z,7.94
2023-04-06T09:37:35.997Z,7.80
2023-04-06T09:40:06.453Z,7.99
2023-04-06T09:42:36.286Z,8.34
2023-04-06T09:45:23.025Z,8.18
2023-04-06T09:48:12.444Z,7.96
2023-04-06T09:50:51.674Z,8.09
2023-04-06T09:54:06.319Z,8.33
2023-04-06T09:56:48.566Z,8.44
2023-04-06T10:00:08.190Z,8.75
2023-04-06T10:02:55.324Z,8.84
2023-04-06T10:06:04.425Z,9.08
2023-04-06T10:08:35.739Z,9.46
2023-04-06T10:11:04.357Z,9.37
2023-04-06T10:13:32.570Z,9.26
2023-04-06T10:16:02.701Z,8.77
2023-04-06T10:18:31.647Z,8.56
2023-04-06T10:21:03.551Z,9.00
2023-04-06T10:23:37.898Z,9.09
2023-04-06T10:26:06.507Z,8.56
2023-04-06T10:28:37.397Z,8.51
2023-04-06T10:31:08.474Z,8.69
2023-04-06T10:33:56.441Z,8.92
2023-04-06T10:36:30.699Z,9.02
2023-04-06T10:39:05.006Z,9.07
2023-04-06T10:41:45.876Z,9.12
2023-04-06T10:44:25.001Z,8.88
2023-04-06T10:46:58.792Z,8.15
2023-04-06T10:49:27.872Z,7.77
2023-04-06T10:51:57.611Z,7.93
2023-04-06T10:54:29.252Z,8.08
2023-04-06T10:56:57.888Z,7.94
2023-04-06T10:59:26.956Z,7.88
2023-04-06T11:01:57.078Z,8.31
2023-04-06T11:04:56.795Z,8.51
2023-04-06T11:07:31.231Z,8.56
2023-04-06T11:10:15.559Z,8.74
2023-04-06T11:12:46.296Z,8.41
2023-04-06T11:15:15.057Z,8.73
2023-04-06T11:17:43.804Z,9.06
2023-04-06T11:20:12.827Z,9.35
2023-04-06T11:23:23.273Z,9.32
2023-04-06T11:26:15.348Z,9.20
2023-04-06T11:28:44.818Z,9.12
2023-04-06T11:31:13.496Z,9.15
2023-04-06T11:33:58.000Z,9.67
2023-04-06T11:36:31.893Z,9.55
2023-04-06T11:39:04.666Z,9.24
2023-04-06T11:41:35.901Z,8.99
2023-04-06T11:44:04.653Z,9.16
2023-04-06T11:46:33.657Z,9.39
2023-04-06T11:49:03.728Z,9.42
2023-04-06T11:51:37.849Z,9.43
2023-04-06T11:54:08.700Z,9.79
2023-04-06T11:56:38.403Z,9.68
2023-04-06T11:59:07.433Z,9.16
2023-04-06T12:01:49.142Z,8.56
2023-04-06T12:04:19.020Z,8.19
2023-04-06T12:06:48.069Z,8.25
2023-04-06T12:09:21.574Z,8.30
2023-04-06T12:11:50.962Z,8.67
2023-04-06T12:14:19.191Z,8.83
2023-04-06T12:16:48.120Z,8.74
2023-04-06T12:19:16.445Z,9.18
2023-04-06T12:21:44.842Z,9.61
2023-04-06T12:24:13.733Z,9.97
2023-04-06T12:26:43.718Z,9.71
2023-04-06T12:29:14.356Z,9.49
2023-04-06T12:31:44.220Z,9.28
2023-04-06T12:34:12.990Z,8.91
2023-04-06T12:36:41.416Z,8.48
2023-04-06T12:39:10.405Z,8.13
2023-04-06T12:41:41.631Z,8.25
2023-04-06T12:44:10.206Z,8.10
2023-04-06T12:46:39.102Z,8.37
2023-04-06T12:49:07.393Z,8.80
2023-04-06T12:51:35.558Z,9.07
2023-04-06T12:54:03.919Z,9.25
2023-04-06T12:56:32.815Z,9.29
2023-04-06T12:59:01.654Z,9.09
2023-04-06T13:01:30.705Z,8.44
2023-04-06T13:04:00.361Z,8.21
2023-04-06T13:06:29.110Z,8.09
2023-04-06T13:08:57.467Z,7.94
2023-04-06T13:11:34.753Z,7.79
2023-04-06T13:14:03.012Z,7.97
2023-04-06T13:16:34.778Z,8.33
2023-04-06T13:19:06.621Z,8.76
2023-04-06T13:21:34.923Z,9.17
2023-04-06T13:24:03.372Z,9.31
2023-04-06T13:26:32.271Z,9.40
2023-04-06T13:29:02.005Z,9.40
2023-04-06T13:31:30.848Z,9.47
2023-04-06T13:33:59.016Z,9.65
2023-04-06T13:36:28.195Z,9.78
2023-04-06T13:38:56.787Z,9.68
2023-04-06T13:41:27.613Z,9.71
2023-04-06T13:43:59.147Z,9.53
2023-04-06T13:46:29.160Z,9.00
2023-04-06T13:48:58.477Z,8.55
2023-04-06T13:51:27.828Z,8.13
2023-04-06T13:53:56.696Z,7.82
2023-04-06T13:56:27.784Z,7.75
2023-04-06T13:58:57.563Z,7.64
2023-04-06T14:01:27.866Z,7.92
2023-04-06T14:04:16.795Z,8.57
2023-04-06T14:06:49.368Z,9.12
2023-04-06T14:09:17.568Z,9.48
2023-04-06T14:11:45.818Z,9.69
2023-04-06T14:14:22.300Z,9.56
2023-04-06T14:16:51.004Z,9.78
2023-04-06T14:19:20.074Z,9.92
2023-04-06T14:22:09.861Z,9.56
2023-04-06T14:24:39.011Z,9.54
2023-04-06T14:27:07.849Z,9.84
2023-04-06T14:29:36.848Z,9.99
2023-04-06T14:32:10.425Z,9.85
2023-04-06T14:34:38.868Z,9.54
2023-04-06T14:37:40.217Z,9.39
2023-04-06T14:40:09.863Z,9.32
2023-04-06T14:42:38.473Z,8.98
2023-04-06T14:45:07.523Z,8.79
2023-04-06T14:47:43.283Z,8.88
2023-04-06T14:50:12.288Z,8.79
2023-04-06T14:52:41.194Z,8.69
2023-04-06T14:55:09.726Z,8.59
2023-04-06T14:57:38.195Z,8.35
2023-04-06T15:00:09.165Z,8.27
2023-04-06T15:02:38.180Z,8.33
2023-04-06T15:05:16.418Z,8.40
2023-04-06T15:07:55.933Z,8.39
2023-04-06T15:10:24.018Z,8.44
2023-04-06T15:12:52.394Z,8.45
2023-04-06T15:15:50.056Z,8.37
2023-04-06T15:18:59.896Z,8.31
2023-04-06T15:21:28.575Z,8.22
2023-04-06T15:23:57.809Z,8.21
2023-04-06T15:26:27.628Z,8.07
2023-04-06T15:28:56.516Z,8.00
2023-04-06T15:31:38.486Z,7.84
2023-04-06T15:34:10.447Z,7.62
2023-04-06T15:36:46.941Z,7.62
2023-04-06T15:39:18.110Z,7.67
2023-04-06T15:41:46.489Z,7.76
2023-04-06T15:44:14.906Z,7.78
2023-04-06T15:46:43.200Z,7.76
2023-04-06T15:49:11.383Z,7.69
2023-04-06T15:51:40.585Z,7.66
2023-04-06T15:54:08.888Z,7.62
2023-04-06T15:56:37.059Z,7.62
2023-04-06T15:59:09.012Z,7.61
2023-04-06T16:01:38.056Z,7.58
2023-04-06T16:04:08.019Z,7.56
2023-04-06T16:06:37.148Z,7.56
2023-04-06T16:09:05.465Z,7.55
2023-04-06T16:11:33.923Z,7.50
2023-04-06T16:14:02.588Z,7.49
2023-04-06T16:16:30.933Z,7.53
2023-04-06T16:18:59.314Z,7.53
2023-04-06T16:21:29.013Z,7.46
2023-04-06T16:23:59.667Z,7.45
2023-04-06T16:26:28.972Z,7.45
2023-04-06T16:28:59.068Z,7.48
2023-04-06T16:31:27.983Z,7.48
2023-04-06T16:34:07.376Z,7.49
2023-04-06T16:36:35.806Z,7.41
2023-04-06T16:39:04.220Z,7.32
2023-04-06T16:41:33.124Z,7.31
2023-04-06T16:44:04.166Z,7.30
2023-04-06T16:46:34.943Z,7.32
2023-04-06T16:49:05.992Z,7.29
2023-04-06T16:51:34.282Z,7.25
2023-04-06T16:54:03.780Z,7.25
2023-04-06T16:56:32.388Z,7.28
2023-04-06T16:59:00.968Z,7.25
2023-04-06T17:01:30.306Z,7.18
2023-04-06T17:03:58.922Z,7.11
2023-04-06T17:06:27.948Z,7.06
2023-04-06T17:08:56.381Z,7.01
2023-04-06T17:11:32.607Z,6.95
2023-04-06T17:14:09.593Z,6.92
2023-04-06T17:16:38.050Z,6.87
2023-04-06T17:19:06.326Z,6.85
2023-04-06T17:21:39.347Z,6.80
2023-04-06T17:24:09.264Z,6.71
2023-04-06T17:26:41.087Z,6.63
2023-04-06T17:29:09.445Z,6.55
2023-04-06T17:31:38.294Z,6.52
2023-04-06T17:34:07.837Z,6.45
2023-04-06T17:36:36.136Z,6.31
2023-04-06T17:39:04.708Z,6.18
2023-04-06T17:41:34.629Z,6.02
2023-04-06T17:44:05.550Z,5.89
2023-04-06T17:46:42.954Z,5.80
2023-04-06T17:49:13.563Z,5.71
2023-04-06T17:51:42.435Z,5.62
2023-04-06T17:54:14.045Z,5.47
2023-04-06T17:56:42.478Z,5.29
2023-04-06T17:59:11.769Z,5.12
2023-04-06T18:01:40.781Z,4.96
2023-04-06T18:04:10.277Z,4.83
2023-04-06T18:06:39.259Z,4.72
2023-04-06T18:09:09.450Z,4.63
2023-04-06T18:11:38.441Z,4.54
2023-04-06T18:14:11.234Z,4.46
2023-04-06T18:16:41.119Z,4.37
2023-04-06T18:19:13.438Z,4.28
2023-04-06T18:21:50.822Z,4.16
2023-04-06T18:24:37.282Z,4.07
2023-04-06T18:27:07.912Z,4.02
2023-04-06T18:29:39.774Z,3.92
2023-04-06T18:32:08.603Z,3.80
2023-04-06T18:34:37.072Z,3.70
2023-04-06T18:37:06.140Z,3.62
2023-04-06T18:39:38.007Z,3.54
2023-04-06T18:42:20.935Z,3.49
2023-04-06T18:44:49.151Z,3.48
2023-04-06T18:47:18.062Z,3.43
2023-04-06T18:49:46.875Z,3.37
2023-04-06T18:52:15.014Z,3.31
2023-04-06T18:54:43.192Z,3.22
2023-04-06T18:57:11.723Z,3.17
2023-04-06T18:59:43.170Z,3.09
2023-04-06T19:02:14.541Z,3.02
2023-04-06T19:04:43.421Z,2.95
2023-04-06T19:07:12.014Z,2.91
2023-04-06T19:09:40.669Z,2.85
2023-04-06T19:12:09.077Z,2.80
2023-04-06T19:14:37.498Z,2.76
2023-04-06T19:17:05.923Z,2.73
2023-04-06T19:19:34.403Z,2.74
2023-04-06T19:22:02.859Z,2.79
2023-04-06T19:24:31.491Z,2.80
2023-04-06T19:27:09.987Z,2.79
2023-04-06T19:29:39.100Z,2.78
2023-04-06T19:32:08.490Z,2.78
2023-04-06T19:34:38.375Z,2.76
2023-04-06T19:37:16.391Z,2.73
2023-04-06T19:39:44.827Z,2.66
2023-04-06T19:42:15.759Z,2.58
2023-04-06T19:44:44.198Z,2.49
2023-04-06T19:47:15.028Z,2.41
2023-04-06T19:49:44.185Z,2.34
2023-04-06T19:52:12.535Z,2.29
2023-04-06T19:54:40.826Z,2.22
2023-04-06T19:57:09.066Z,2.20
2023-04-06T19:59:37.294Z,2.16
2023-04-06T20:02:08.293Z,2.15
2023-04-06T20:04:36.833Z,2.11
2023-04-06T20:07:05.834Z,2.07
2023-04-06T20:09:34.228Z,2.05
2023-04-06T20:12:02.677Z,2.04
2023-04-06T20:14:31.384Z,2.03
2023-04-06T20:16:59.811Z,1.96
2023-04-06T20:19:28.813Z,1.87
2023-04-06T20:21:57.986Z,1.79
2023-04-06T20:24:26.388Z,1.75
2023-04-06T20:26:54.527Z,1.77
2023-04-06T20:29:22.934Z,1.80
2023-04-06T20:31:51.204Z,1.82
2023-04-06T20:34:20.494Z,1.84
2023-04-06T20:36:49.365Z,1.83
2023-04-06T20:39:17.777Z,1.78
2023-04-06T20:41:46.103Z,1.71
2023-04-06T20:44:14.923Z,1.66
2023-04-06T20:46:43.559Z,1.68
2023-04-06T20:49:13.072Z,1.66
2023-04-06T20:51:44.293Z,1.60
2023-04-06T20:54:12.934Z,1.55
2023-04-06T20:56:41.256Z,1.49
2023-04-06T20:59:10.211Z,1.43
2023-04-06T21:01:39.100Z,1.38
2023-04-06T21:04:07.553Z,1.33
2023-04-06T21:06:36.153Z,1.29
2023-04-06T21:09:04.406Z,1.22
2023-04-06T21:11:32.655Z,1.17
2023-04-06T21:14:01.105Z,1.13
2023-04-06T21:16:30.982Z,1.10
2023-04-06T21:18:59.320Z,1.07
2023-04-06T21:21:27.875Z,1.04
2023-04-06T21:23:56.773Z,1.03
2023-04-06T21:26:25.104Z,0.99
2023-04-06T21:28:53.514Z,0.97
2023-04-06T21:31:22.471Z,0.97
2023-04-06T21:33:51.601Z,0.97
2023-04-06T21:36:24.942Z,0.98
2023-04-06T21:38:53.202Z,0.97
2023-04-06T21:41:23.975Z,0.95
2023-04-06T21:43:52.566Z,0.92
2023-04-06T21:46:20.747Z,0.91
2023-04-06T21:48:49.554Z,0.89
2023-04-06T21:51:18.982Z,0.90
2023-04-06T21:53:48.174Z,0.91
2023-04-06T21:56:29.114Z,0.92
2023-04-06T21:59:23.875Z,0.91
2023-04-06T22:01:52.975Z,0.89
2023-04-06T22:04:23.639Z,0.88
2023-04-06T22:06:52.152Z,0.90
2023-04-06T22:09:32.406Z,0.92
2023-04-06T22:12:01.225Z,0.98
2023-04-06T22:14:35.758Z,1.04
2023-04-06T22:17:27.489Z,1.09
2023-04-06T22:19:55.919Z,1.11
2023-04-06T22:22:34.386Z,1.08
2023-04-06T22:25:02.763Z,1.05
2023-04-06T22:27:31.505Z,1.02
2023-04-06T22:29:59.687Z,1.01
2023-04-06T22:32:45.717Z,0.98
2023-04-06T22:35:13.937Z,0.96
2023-04-06T22:37:43.510Z,0.94
2023-04-06T22:40:12.209Z,0.91
2023-04-06T22:42:41.100Z,0.92
2023-04-06T22:45:10.083Z,0.96
2023-04-06T22:47:58.604Z,1.00
2023-04-06T22:50:50.977Z,1.11
2023-04-06T22:53:19.799Z,1.21
2023-04-06T22:55:51.001Z,1.27
2023-04-06T22:58:27.698Z,1.31
2023-04-06T23:00:56.018Z,1.32
2023-04-06T23:03:33.066Z,1.26
2023-04-06T23:06:09.026Z,1.22
2023-04-06T23:08:37.438Z,1.20
2023-04-06T23:11:08.644Z,1.25
2023-04-06T23:13:39.862Z,1.35
2023-04-06T23:16:09.616Z,1.42
2023-04-06T23:18:38.630Z,1.49
2023-04-06T23:21:09.901Z,1.53
2023-04-06T23:23:38.248Z,1.55
2023-04-06T23:26:06.493Z,1.57
2023-04-06T23:28:34.804Z,1.62
2023-04-06T23:31:14.892Z,1.70
2023-04-06T23:33:46.177Z,1.74
2023-04-06T23:36:17.924Z,1.77
2023-04-06T23:38:48.987Z,1.81
2023-04-06T23:41:17.100Z,1.86
2023-04-06T23:43:45.222Z,1.91
2023-04-06T23:46:36.986Z,1.97
2023-04-06T23:49:07.460Z,2.03
2023-04-06T23:51:35.874Z,2.05
2023-04-06T23:54:12.883Z,2.08
2023-04-06T23:56:42.044Z,2.09
2023-04-06T23:59:10.682Z,2.11
